Time;durP1;ratioP1;P1;durP2;ratioP2;P2;SDS_P1;SDS_P2;PMS_P1;PMS_P2;Temp;Humidity;BMP_temperature;BMP_pressure;BME280_temperature;BME280_humidity;BME280_pressure;Samples;Min_cycle;Max_cycle;Signal;HPM_P1;HPM_P2
2023/06/10 00:01:59;;;;;;;8.27;3.20;;;;;;;;;;5006058;28;20504;-82
2023/06/10 00:04:25;;;;;;;8.32;3.63;;;;;;;;;;5024687;28;20053;-81
2023/06/10 00:06:57;;;;;;;7.68;2.97;;;;;;;;;;5023341;28;20037;-81
2023/06/10 00:09:22;;;;;;;8.20;3.40;;;;;;;;;;5022804;28;20433;-82
2023/06/10 00:11:48;;;;;;;7.75;3.08;;;;;;;;;;5006253;28;20044;-82
2023/06/10 00:14:13;;;;;;;7.82;3.60;;;;;;;;;;5006439;28;20547;-82
2023/06/10 00:16:39;;;;;;;8.23;3.10;;;;;;;;;;4992005;28;20037;-82
2023/06/10 00:19:05;;;;;;;7.65;2.88;;;;;;;;;;5009371;28;20068;-82
2023/06/10 00:21:37;;;;;;;7.78;3.17;;;;;;;;;;5014188;28;20408;-81
2023/06/10 00:24:14;;;;;;;6.45;2.75;;;;;;;;;;5038260;28;20099;-81
2023/06/10 00:26:40;;;;;;;7.60;2.97;;;;;;;;;;5004480;28;20041;-82
2023/06/10 00:29:09;;;;;;;7.45;3.10;;;;;;;;;;5022275;28;20065;-82
2023/06/10 00:31:36;;;;;;;7.35;3.08;;;;;;;;;;5005592;28;20029;-82
2023/06/10 00:34:07;;;;;;;6.30;2.70;;;;;;;;;;5005977;28;20655;-83
2023/06/10 00:36:33;;;;;;;7.18;2.90;;;;;;;;;;5022084;28;20060;-81
2023/06/10 00:39:04;;;;;;;9.60;3.35;;;;;;;;;;5006324;28;20582;-83
2023/06/10 00:41:30;;;;;;;8.68;3.85;;;;;;;;;;5022240;28;20088;-82
2023/06/10 00:43:56;;;;;;;6.25;2.95;;;;;;;;;;5026083;28;20488;-82
2023/06/10 00:46:22;;;;;;;8.57;2.88;;;;;;;;;;5021342;28;20148;-82
2023/06/10 00:48:47;;;;;;;6.82;3.35;;;;;;;;;;5004970;28;20503;-83
2023/06/10 00:51:19;;;;;;;7.15;3.08;;;;;;;;;;5021768;28;20033;-83
2023/06/10 00:53:45;;;;;;;8.38;2.97;;;;;;;;;;5021916;28;20065;-85
2023/06/10 00:56:10;;;;;;;9.02;3.10;;;;;;;;;;5022286;28;20042;-82
2023/06/10 00:58:36;;;;;;;7.32;2.97;;;;;;;;;;5005613;28;20037;-82
2023/06/10 01:01:01;;;;;;;7.43;3.30;;;;;;;;;;5010379;28;20049;-82
2023/06/10 01:03:27;;;;;;;8.07;2.90;;;;;;;;;;5005762;28;20030;-83
2023/06/10 01:06:17;;;;;;;6.68;3.00;;;;;;;;;;5020736;28;20041;-82
2023/06/10 01:08:54;;;;;;;8.02;3.10;;;;;;;;;;5020891;28;20068;-83
2023/06/10 01:11:33;;;;;;;9.85;3.90;;;;;;;;;;5026444;28;20108;-84
2023/06/10 01:13:59;;;;;;;6.22;3.00;;;;;;;;;;5018277;28;20156;-81
2023/06/10 01:16:25;;;;;;;5.78;2.97;;;;;;;;;;5024980;28;20176;-82
2023/06/10 01:18:52;;;;;;;8.07;3.00;;;;;;;;;;5006395;28;20037;-83
2023/06/10 01:21:24;;;;;;;6.97;2.95;;;;;;;;;;5015416;28;20100;-83
2023/06/10 01:23:51;;;;;;;7.45;2.92;;;;;;;;;;5026048;28;20105;-83
2023/06/10 01:26:16;;;;;;;10.10;2.97;;;;;;;;;;5000004;28;20041;-82
2023/06/10 01:28:53;;;;;;;7.25;2.78;;;;;;;;;;5013499;28;20033;-83
2023/06/10 01:31:22;;;;;;;9.05;2.95;;;;;;;;;;5008516;28;20033;-82
2023/06/10 01:33:54;;;;;;;7.22;2.72;;;;;;;;;;5024339;28;20033;-84
2023/06/10 01:36:22;;;;;;;8.15;2.90;;;;;;;;;;5007983;28;20393;-83
2023/06/10 01:38:47;;;;;;;6.47;3.60;;;;;;;;;;5008221;28;20045;-84
2023/06/10 01:41:14;;;;;;;8.05;3.33;;;;;;;;;;5008977;28;20326;-82
2023/06/10 01:43:39;;;;;;;8.07;3.00;;;;;;;;;;5009492;28;20524;-82
2023/06/10 01:46:09;;;;;;;6.18;2.75;;;;;;;;;;5024334;28;20041;-82
2023/06/10 01:48:34;;;;;;;9.30;3.40;;;;;;;;;;5017792;28;20550;-82
2023/06/10 01:51:05;;;;;;;7.97;3.00;;;;;;;;;;5024852;28;20112;-82
2023/06/10 01:53:31;;;;;;;6.60;2.92;;;;;;;;;;5042758;28;20045;-82
2023/06/10 01:55:56;;;;;;;6.80;3.13;;;;;;;;;;5011672;28;20041;-82
2023/06/10 01:58:21;;;;;;;5.38;2.83;;;;;;;;;;5027957;28;20040;-83
2023/06/10 02:00:47;;;;;;;7.97;3.15;;;;;;;;;;4995955;28;20052;-82
2023/06/10 02:03:12;;;;;;;6.60;3.33;;;;;;;;;;4997706;28;20037;-82
2023/06/10 02:05:38;;;;;;;7.72;3.30;;;;;;;;;;4999654;28;20400;-82
2023/06/10 02:08:07;;;;;;;7.70;3.25;;;;;;;;;;5011729;28;20035;-83
2023/06/10 02:10:32;;;;;;;8.15;3.38;;;;;;;;;;4988443;28;20034;-82
2023/06/10 02:12:58;;;;;;;8.38;2.85;;;;;;;;;;5028111;28;20098;-81
2023/06/10 02:15:23;;;;;;;7.88;3.28;;;;;;;;;;5010287;28;20048;-81
2023/06/10 02:17:50;;;;;;;7.05;2.85;;;;;;;;;;5027737;28;20116;-83
2023/06/10 02:20:23;;;;;;;6.07;2.70;;;;;;;;;;5027603;28;20399;-82
2023/06/10 02:22:48;;;;;;;8.05;2.90;;;;;;;;;;5027235;28;20029;-82
2023/06/10 02:25:18;;;;;;;7.75;3.28;;;;;;;;;;5025814;28;20511;-83
2023/06/10 02:27:44;;;;;;;8.80;3.42;;;;;;;;;;5043733;28;20040;-82
2023/06/10 02:30:10;;;;;;;6.22;3.00;;;;;;;;;;5011451;28;20511;-83
2023/06/10 02:32:35;;;;;;;6.03;3.13;;;;;;;;;;5002424;28;20456;-82
2023/06/10 02:35:01;;;;;;;8.27;3.55;;;;;;;;;;4995339;28;20030;-82
2023/06/10 02:37:29;;;;;;;5.90;2.70;;;;;;;;;;5017558;28;20970;-84
2023/06/10 02:39:54;;;;;;;8.18;3.58;;;;;;;;;;5009916;28;20468;-84
2023/06/10 02:42:20;;;;;;;6.97;3.30;;;;;;;;;;4991924;28;20048;-83
2023/06/10 02:44:48;;;;;;;6.80;3.10;;;;;;;;;;5002603;28;20066;-82
2023/06/10 02:47:14;;;;;;;6.35;2.60;;;;;;;;;;5009946;28;20040;-82
2023/06/10 02:49:40;;;;;;;6.32;3.13;;;;;;;;;;5027012;28;20037;-82
2023/06/10 02:52:06;;;;;;;7.82;3.13;;;;;;;;;;5025597;28;20286;-82
2023/06/10 02:54:32;;;;;;;8.77;3.40;;;;;;;;;;5027189;28;20053;-82
2023/06/10 02:57:00;;;;;;;8.38;3.42;;;;;;;;;;5026097;28;20655;-82
2023/06/10 02:59:26;;;;;;;8.63;3.47;;;;;;;;;;5025827;28;20056;-82
2023/06/10 03:01:52;;;;;;;8.52;3.20;;;;;;;;;;5018411;28;20384;-82
2023/06/10 03:04:18;;;;;;;8.25;3.53;;;;;;;;;;5027486;28;20029;-82
2023/06/10 03:06:45;;;;;;;6.95;3.42;;;;;;;;;;5031794;28;20033;-82
2023/06/10 03:09:10;;;;;;;5.47;3.28;;;;;;;;;;5019414;28;20044;-83
2023/06/10 03:11:36;;;;;;;8.48;3.28;;;;;;;;;;5009678;28;20029;-81
2023/06/10 03:14:02;;;;;;;6.97;2.95;;;;;;;;;;5031666;28;20037;-83
2023/06/10 03:16:30;;;;;;;7.93;3.28;;;;;;;;;;4991012;28;20128;-83
2023/06/10 03:18:55;;;;;;;8.93;3.40;;;;;;;;;;5024016;28;20051;-83
2023/06/10 03:21:21;;;;;;;6.47;2.95;;;;;;;;;;5008034;28;20041;-83
2023/06/10 03:23:46;;;;;;;8.13;3.17;;;;;;;;;;5010252;28;20412;-81
2023/06/10 03:26:14;;;;;;;7.50;3.30;;;;;;;;;;5009173;28;20029;-84
2023/06/10 03:28:41;;;;;;;8.57;4.07;;;;;;;;;;5010703;28;20032;-82
2023/06/10 03:31:07;;;;;;;;;;;;;;;;;;5009639;28;20114;-82
2023/06/10 03:33:32;;;;;;;5.95;3.20;;;;;;;;;;5025403;28;19917;-83
2023/06/10 03:35:58;;;;;;;7.15;3.38;;;;;;;;;;5009632;28;20044;-82
2023/06/10 03:38:23;;;;;;;10.00;3.70;;;;;;;;;;5025816;28;20033;-83
2023/06/10 03:40:49;;;;;;;6.70;3.70;;;;;;;;;;5008718;28;20111;-82
2023/06/10 03:43:14;;;;;;;6.22;3.03;;;;;;;;;;5030643;28;20029;-83
2023/06/10 03:45:41;;;;;;;7.57;3.38;;;;;;;;;;5030427;28;20033;-82
2023/06/10 03:48:07;;;;;;;9.10;3.67;;;;;;;;;;5014420;28;20503;-83
2023/06/10 03:50:33;;;;;;;7.95;3.30;;;;;;;;;;4991482;28;20124;-83
2023/06/10 03:52:59;;;;;;;9.90;3.72;;;;;;;;;;4989879;28;20037;-83
2023/06/10 03:55:24;;;;;;;9.98;4.15;;;;;;;;;;5006690;28;20041;-82
2023/06/10 03:57:55;;;;;;;7.28;3.38;;;;;;;;;;5010367;28;20047;-83
2023/06/10 04:00:21;;;;;;;6.90;3.17;;;;;;;;;;5008182;28;20142;-83
2023/06/10 04:02:49;;;;;;;11.07;3.88;;;;;;;;;;5025231;28;20756;-82
2023/06/10 04:05:18;;;;;;;8.10;3.50;;;;;;;;;;4995654;28;20040;-82
2023/06/10 04:07:44;;;;;;;7.85;3.60;;;;;;;;;;5025541;28;20043;-82
2023/06/10 04:10:13;;;;;;;8.85;3.70;;;;;;;;;;5009681;28;20033;-82
2023/06/10 04:12:38;;;;;;;7.85;3.40;;;;;;;;;;5007746;28;20109;-82
2023/06/10 04:15:04;;;;;;;8.35;3.38;;;;;;;;;;5012582;28;20041;-82
2023/06/10 04:17:30;;;;;;;10.65;3.55;;;;;;;;;;5013733;28;20033;-82
2023/06/10 04:20:07;;;;;;;7.32;3.47;;;;;;;;;;5020483;28;20029;-82
2023/06/10 04:22:33;;;;;;;8.20;3.75;;;;;;;;;;5024360;28;20411;-81
2023/06/10 04:25:01;;;;;;;10.05;4.13;;;;;;;;;;5015760;28;20033;-83
2023/06/10 04:27:27;;;;;;;7.90;3.75;;;;;;;;;;5024145;28;20041;-82
2023/06/10 04:29:52;;;;;;;6.18;3.67;;;;;;;;;;5025358;28;20364;-82
2023/06/10 04:32:28;;;;;;;10.52;4.53;;;;;;;;;;5024454;28;20045;-81
2023/06/10 04:34:53;;;;;;;8.27;3.67;;;;;;;;;;5026067;28;20434;-81
2023/06/10 04:37:19;;;;;;;8.15;3.65;;;;;;;;;;5012517;28;20037;-82
2023/06/10 04:39:45;;;;;;;9.15;3.75;;;;;;;;;;5013071;28;20586;-82
2023/06/10 04:42:11;;;;;;;8.38;3.85;;;;;;;;;;5025850;28;20033;-83
2023/06/10 04:44:36;;;;;;;7.53;4.00;;;;;;;;;;5009885;28;20040;-82
2023/06/10 04:47:02;;;;;;;13.05;4.45;;;;;;;;;;5029871;28;20040;-82
2023/06/10 04:49:28;;;;;;;10.25;3.90;;;;;;;;;;5028843;28;20033;-83
2023/06/10 04:51:54;;;;;;;9.93;3.97;;;;;;;;;;5019523;28;20472;-82
2023/06/10 04:54:19;;;;;;;8.93;3.80;;;;;;;;;;5028725;28;20087;-82
2023/06/10 04:56:45;;;;;;;8.27;3.80;;;;;;;;;;5015050;28;20047;-82
2023/06/10 04:59:10;;;;;;;8.95;4.05;;;;;;;;;;5001761;28;20044;-82
2023/06/10 05:01:35;;;;;;;5.68;3.20;;;;;;;;;;5045326;28;20037;-82
2023/06/10 05:04:01;;;;;;;8.30;3.85;;;;;;;;;;5011932;28;20040;-82
2023/06/10 05:06:29;;;;;;;7.50;3.92;;;;;;;;;;5005500;28;20041;-82
2023/06/10 05:08:54;;;;;;;9.98;4.45;;;;;;;;;;5026220;28;20047;-82
2023/06/10 05:11:20;;;;;;;8.57;3.97;;;;;;;;;;5013782;28;20041;-83
2023/06/10 05:13:45;;;;;;;8.88;4.25;;;;;;;;;;5029236;28;20111;-82
2023/06/10 05:16:10;;;;;;;9.30;3.95;;;;;;;;;;5029518;28;20041;-84
2023/06/10 05:18:36;;;;;;;9.10;4.18;;;;;;;;;;5028929;28;20443;-82
2023/06/10 05:21:02;;;;;;;8.05;4.13;;;;;;;;;;5028445;28;20095;-82
2023/06/10 05:23:32;;;;;;;7.82;3.58;;;;;;;;;;4991795;28;20060;-82
2023/06/10 05:25:59;;;;;;;8.43;4.10;;;;;;;;;;5027010;28;20029;-83
2023/06/10 05:28:25;;;;;;;9.80;4.40;;;;;;;;;;5028901;28;20044;-81
2023/06/10 05:30:51;;;;;;;10.23;4.47;;;;;;;;;;5017900;28;20148;-78
2023/06/10 05:33:16;;;;;;;7.25;4.25;;;;;;;;;;5028161;28;20116;-79
2023/06/10 05:35:42;;;;;;;10.50;4.22;;;;;;;;;;5027714;28;20416;-80
2023/06/10 05:38:07;;;;;;;9.20;4.55;;;;;;;;;;5014315;28;20037;-80
2023/06/10 05:40:32;;;;;;;7.43;3.85;;;;;;;;;;5027563;28;21697;-79
2023/06/10 05:42:58;;;;;;;8.13;4.13;;;;;;;;;;5028416;28;20044;-79
2023/06/10 05:45:30;;;;;;;6.70;3.83;;;;;;;;;;5011080;28;20036;-80
2023/06/10 05:47:56;;;;;;;11.30;4.35;;;;;;;;;;5012263;28;20075;-80
2023/06/10 05:50:30;;;;;;;9.32;4.38;;;;;;;;;;4997864;28;20104;-79
2023/06/10 05:52:56;;;;;;;8.38;4.25;;;;;;;;;;5012154;28;20053;-79
2023/06/10 05:55:21;;;;;;;7.50;4.13;;;;;;;;;;5018102;28;20049;-80
2023/06/10 05:57:47;;;;;;;8.48;4.40;;;;;;;;;;5014540;28;20436;-80
2023/06/10 06:00:13;;;;;;;8.32;4.22;;;;;;;;;;5002995;28;20115;-80
2023/06/10 06:02:38;;;;;;;7.45;4.32;;;;;;;;;;5026472;28;20025;-80
2023/06/10 06:05:04;;;;;;;7.13;4.05;;;;;;;;;;5028154;28;20029;-80
2023/06/10 06:07:30;;;;;;;8.95;4.35;;;;;;;;;;5043717;28;20029;-79
2023/06/10 06:09:55;;;;;;;8.95;4.53;;;;;;;;;;5031412;28;20044;-80
2023/06/10 06:12:21;;;;;;;9.00;4.20;;;;;;;;;;5026674;28;20033;-79
2023/06/10 06:14:49;;;;;;;8.10;4.30;;;;;;;;;;5027491;28;20094;-79
2023/06/10 06:17:15;;;;;;;10.02;4.60;;;;;;;;;;5010976;28;20374;-81
2023/06/10 06:19:47;;;;;;;10.70;5.43;;;;;;;;;;5027880;28;20043;-80
2023/06/10 06:22:13;;;;;;;8.50;4.70;;;;;;;;;;5027466;28;20033;-79
2023/06/10 06:24:40;;;;;;;11.00;4.55;;;;;;;;;;5028314;28;20575;-80
2023/06/10 06:27:06;;;;;;;;;;;;;;;;;;5011751;28;20033;-80
2023/06/10 06:29:34;;;;;;;7.80;4.32;;;;;;;;;;5027331;28;19947;-79
2023/06/10 06:32:02;;;;;;;7.95;4.20;;;;;;;;;;5043791;28;20438;-80
2023/06/10 06:34:28;;;;;;;10.63;4.75;;;;;;;;;;5009890;28;20496;-80
2023/06/10 06:36:53;;;;;;;8.13;4.18;;;;;;;;;;5010646;28;20092;-80
2023/06/10 06:39:19;;;;;;;8.93;4.45;;;;;;;;;;5027329;28;20142;-79
2023/06/10 06:41:44;;;;;;;7.70;4.30;;;;;;;;;;5009871;28;20039;-80
2023/06/10 06:44:13;;;;;;;8.70;4.20;;;;;;;;;;5028595;28;20037;-79
2023/06/10 06:46:38;;;;;;;8.82;4.50;;;;;;;;;;5026876;28;20415;-79
2023/06/10 06:49:03;;;;;;;7.47;4.20;;;;;;;;;;5027216;28;20040;-79
2023/06/10 06:51:29;;;;;;;8.50;4.30;;;;;;;;;;5026814;28;20044;-79
2023/06/10 06:53:58;;;;;;;8.68;4.25;;;;;;;;;;5027690;28;20052;-80
2023/06/10 06:56:24;;;;;;;9.52;4.10;;;;;;;;;;5043587;28;20785;-80
2023/06/10 06:58:52;;;;;;;7.53;4.00;;;;;;;;;;5044077;28;20044;-79
2023/06/10 07:01:17;;;;;;;8.85;3.85;;;;;;;;;;5026547;28;20083;-79
2023/06/10 07:03:46;;;;;;;9.32;4.70;;;;;;;;;;5009998;28;20052;-79
2023/06/10 07:06:12;;;;;;;9.25;4.65;;;;;;;;;;5010403;28;20025;-80
2023/06/10 07:08:38;;;;;;;6.20;4.20;;;;;;;;;;5009091;28;20378;-80
2023/06/10 07:11:03;;;;;;;10.57;4.57;;;;;;;;;;5025444;28;20040;-80
2023/06/10 07:13:29;;;;;;;6.90;4.32;;;;;;;;;;5026820;28;20190;-80
2023/06/10 07:15:54;;;;;;;7.78;4.13;;;;;;;;;;4999329;28;20041;-80
2023/06/10 07:18:20;;;;;;;7.07;4.43;;;;;;;;;;5026588;28;20520;-80
2023/06/10 07:20:45;;;;;;;8.43;4.20;;;;;;;;;;5010414;28;20040;-80
2023/06/10 07:23:11;;;;;;;10.63;4.15;;;;;;;;;;5026917;28;20048;-81
2023/06/10 07:25:36;;;;;;;9.32;4.75;;;;;;;;;;5025710;28;20102;-79
2023/06/10 07:28:02;;;;;;;7.30;4.80;;;;;;;;;;5026921;28;20537;-80
2023/06/10 07:30:28;;;;;;;6.55;4.03;;;;;;;;;;5006712;28;20468;-80
2023/06/10 07:32:53;;;;;;;7.80;4.40;;;;;;;;;;5023134;28;20120;-80
2023/06/10 07:35:22;;;;;;;7.93;4.30;;;;;;;;;;5008717;28;20230;-80
2023/06/10 07:37:47;;;;;;;8.60;4.45;;;;;;;;;;5000983;28;20033;-81
2023/06/10 07:40:13;;;;;;;8.40;4.50;;;;;;;;;;5009422;28;20041;-82
2023/06/10 07:42:38;;;;;;;8.07;4.50;;;;;;;;;;5010305;28;20317;-83
2023/06/10 07:45:04;;;;;;;6.68;4.47;;;;;;;;;;5025144;28;20120;-80
2023/06/10 07:47:30;;;;;;;8.07;4.07;;;;;;;;;;5008916;28;20119;-79
2023/06/10 07:49:55;;;;;;;6.80;4.10;;;;;;;;;;5041932;28;20120;-80
2023/06/10 07:52:21;;;;;;;7.38;4.85;;;;;;;;;;5025470;28;20037;-80
2023/06/10 07:54:46;;;;;;;7.32;4.50;;;;;;;;;;5026073;28;20045;-80
2023/06/10 07:57:12;;;;;;;7.45;4.60;;;;;;;;;;5025237;28;20044;-80
2023/06/10 07:59:38;;;;;;;9.68;5.20;;;;;;;;;;5015231;28;20612;-80
2023/06/10 08:02:03;;;;;;;5.95;3.97;;;;;;;;;;5008308;28;20045;-81
2023/06/10 08:04:30;;;;;;;9.35;4.20;;;;;;;;;;5025834;28;20040;-80
2023/06/10 08:06:56;;;;;;;7.47;4.60;;;;;;;;;;4999678;28;20460;-80
2023/06/10 08:09:22;;;;;;;8.52;4.00;;;;;;;;;;5025994;28;20041;-80
2023/06/10 08:11:48;;;;;;;8.80;4.57;;;;;;;;;;5025119;28;20037;-81
2023/06/10 08:14:23;;;;;;;6.30;4.50;;;;;;;;;;5024245;28;20044;-80
2023/06/10 08:16:48;;;;;;;12.45;4.50;;;;;;;;;;5008296;28;20029;-80
2023/06/10 08:19:18;;;;;;;7.30;4.03;;;;;;;;;;5009226;28;20091;-87
2023/06/10 08:21:43;;;;;;;6.82;4.30;;;;;;;;;;5026730;28;20033;-89
2023/06/10 08:24:09;;;;;;;7.35;4.03;;;;;;;;;;5026429;28;20139;-89
2023/06/10 08:26:38;;;;;;;7.35;4.40;;;;;;;;;;5024718;28;20435;-83
2023/06/10 08:29:04;;;;;;;6.30;4.50;;;;;;;;;;5008553;28;20033;-82
2023/06/10 08:31:30;;;;;;;7.85;4.45;;;;;;;;;;5024017;28;20373;-83
2023/06/10 08:33:55;;;;;;;7.30;4.57;;;;;;;;;;5031807;28;20043;-82
2023/06/10 08:36:21;;;;;;;6.65;3.92;;;;;;;;;;5008998;28;20057;-83
2023/06/10 08:38:46;;;;;;;8.18;4.30;;;;;;;;;;4998208;28;20029;-83
2023/06/10 08:41:14;;;;;;;7.60;3.95;;;;;;;;;;4993607;28;20044;-82
2023/06/10 08:43:55;;;;;;;8.10;4.45;;;;;;;;;;5041742;28;20040;-84
2023/06/10 08:46:21;;;;;;;5.95;4.25;;;;;;;;;;5024827;28;20508;-83
2023/06/10 08:48:55;;;;;;;7.07;4.30;;;;;;;;;;5024609;28;20084;-83
2023/06/10 08:51:24;;;;;;;7.45;4.15;;;;;;;;;;5025269;28;20428;-83
2023/06/10 08:54:02;;;;;;;6.72;3.92;;;;;;;;;;5024422;28;20124;-85
2023/06/10 08:56:28;;;;;;;7.93;4.18;;;;;;;;;;5020822;28;20128;-83
2023/06/10 08:58:55;;;;;;;6.70;4.22;;;;;;;;;;5007445;28;20155;-83
2023/06/10 09:01:20;;;;;;;7.13;4.50;;;;;;;;;;5003841;28;20037;-83
2023/06/10 09:03:48;;;;;;;6.30;4.00;;;;;;;;;;5024496;28;20039;-84
2023/06/10 09:06:17;;;;;;;6.65;4.00;;;;;;;;;;5023877;28;20037;-85
2023/06/10 09:08:42;;;;;;;7.00;3.72;;;;;;;;;;5026133;28;20033;-83
2023/06/10 09:11:08;;;;;;;7.70;4.00;;;;;;;;;;5006874;28;20387;-84
2023/06/10 09:13:33;;;;;;;7.95;4.10;;;;;;;;;;5025369;28;20033;-82
2023/06/10 09:16:01;;;;;;;6.75;3.80;;;;;;;;;;5023638;28;20436;-83
2023/06/10 09:18:27;;;;;;;6.32;3.85;;;;;;;;;;5025282;28;20094;-84
2023/06/10 09:20:53;;;;;;;7.82;3.85;;;;;;;;;;5024062;28;20040;-81
2023/06/10 09:23:18;;;;;;;5.70;3.78;;;;;;;;;;5009217;28;20028;-82
2023/06/10 09:25:44;;;;;;;6.32;3.67;;;;;;;;;;5015042;28;20120;-85
2023/06/10 09:28:14;;;;;;;11.52;4.20;;;;;;;;;;5025858;28;20128;-81
2023/06/10 09:30:40;;;;;;;6.60;3.17;;;;;;;;;;5011921;28;20489;-81
2023/06/10 09:33:15;;;;;;;5.13;3.70;;;;;;;;;;5012081;28;20040;-81
2023/06/10 09:35:50;;;;;;;6.35;3.47;;;;;;;;;;4994206;28;20045;-82
2023/06/10 09:38:22;;;;;;;6.47;3.53;;;;;;;;;;5010913;28;20123;-85
2023/06/10 09:40:51;;;;;;;7.15;3.72;;;;;;;;;;5026693;28;20025;-83
2023/06/10 09:43:17;;;;;;;6.10;3.50;;;;;;;;;;5010887;28;20041;-80
2023/06/10 09:45:43;;;;;;;6.27;3.80;;;;;;;;;;5014189;28;20037;-82
2023/06/10 09:48:08;;;;;;;6.70;3.50;;;;;;;;;;4993324;28;20033;-79
2023/06/10 09:50:34;;;;;;;7.43;3.35;;;;;;;;;;5026631;28;20090;-80
2023/06/10 09:53:02;;;;;;;6.97;3.90;;;;;;;;;;5027504;28;20064;-80
2023/06/10 09:55:27;;;;;;;6.60;3.70;;;;;;;;;;5026999;28;20107;-79
2023/06/10 09:57:53;;;;;;;8.25;3.65;;;;;;;;;;5031905;28;20049;-80
2023/06/10 10:00:19;;;;;;;7.40;3.80;;;;;;;;;;5026951;28;20144;-79
2023/06/10 10:02:47;;;;;;;7.05;4.03;;;;;;;;;;5026724;28;20461;-80
2023/06/10 10:05:16;;;;;;;6.60;3.85;;;;;;;;;;5027386;28;20926;-79
2023/06/10 10:07:45;;;;;;;8.10;4.43;;;;;;;;;;5010804;28;20024;-79
2023/06/10 10:10:13;;;;;;;9.20;3.90;;;;;;;;;;5030331;28;20119;-80
2023/06/10 10:12:39;;;;;;;6.38;3.72;;;;;;;;;;5025998;28;20134;-79
2023/06/10 10:15:09;;;;;;;8.48;3.88;;;;;;;;;;5026089;28;20048;-79
2023/06/10 10:17:38;;;;;;;9.07;3.97;;;;;;;;;;4996347;28;20536;-80
2023/06/10 10:20:08;;;;;;;6.47;3.92;;;;;;;;;;5026939;28;21286;-79
2023/06/10 10:22:38;;;;;;;7.13;4.35;;;;;;;;;;5009640;28;20109;-79
2023/06/10 10:25:10;;;;;;;6.07;4.00;;;;;;;;;;5025599;28;20033;-79
2023/06/10 10:27:38;;;;;;;8.43;4.28;;;;;;;;;;5009561;28;20033;-78
2023/06/10 10:30:08;;;;;;;7.60;4.35;;;;;;;;;;5025838;28;20044;-79
2023/06/10 10:33:38;;;;;;;7.05;4.55;;;;;;;;;;5026145;28;20047;-78
2023/06/10 10:36:04;;;;;;;7.05;4.30;;;;;;;;;;4944650;28;20081;-80
2023/06/10 10:38:32;;;;;;;6.70;4.10;;;;;;;;;;4948082;28;20049;-79
2023/06/10 10:40:59;;;;;;;6.38;4.43;;;;;;;;;;4983565;28;20536;-79
2023/06/10 10:43:25;;;;;;;7.65;4.35;;;;;;;;;;5024708;28;20496;-80
2023/06/10 10:46:00;;;;;;;7.82;4.75;;;;;;;;;;5024932;28;20039;-79
2023/06/10 10:48:29;;;;;;;6.78;3.72;;;;;;;;;;5026751;28;20049;-80
2023/06/10 10:51:00;;;;;;;8.50;4.18;;;;;;;;;;5030589;28;20471;-80
2023/06/10 10:53:25;;;;;;;6.78;3.90;;;;;;;;;;5026627;28;20052;-80
2023/06/10 10:56:14;;;;;;;4.60;2.90;;;;;;;;;;5008738;28;20036;-82
2023/06/10 10:58:39;;;;;;;8.38;3.40;;;;;;;;;;5026615;28;20043;-81
2023/06/10 11:01:12;;;;;;;5.32;2.90;;;;;;;;;;5025190;28;20036;-80
2023/06/10 11:03:46;;;;;;;6.93;2.83;;;;;;;;;;5009980;28;20127;-78
2023/06/10 11:06:14;;;;;;;4.47;2.75;;;;;;;;;;5026849;28;20036;-79
2023/06/10 11:08:39;;;;;;;4.57;2.80;;;;;;;;;;5027232;28;20029;-86
2023/06/10 11:11:20;;;;;;;7.25;2.42;;;;;;;;;;5016550;28;20401;-80
2023/06/10 11:14:01;;;;;;;6.72;2.83;;;;;;;;;;5029746;28;20037;-80
2023/06/10 11:16:27;;;;;;;4.07;2.30;;;;;;;;;;5025080;28;20559;-80
2023/06/10 11:18:56;;;;;;;4.77;2.33;;;;;;;;;;5026226;28;20033;-81
2023/06/10 11:21:27;;;;;;;5.18;2.50;;;;;;;;;;5009710;28;20041;-81
2023/06/10 11:23:53;;;;;;;6.28;2.63;;;;;;;;;;4998317;28;20036;-84
2023/06/10 11:26:31;;;;;;;5.28;2.42;;;;;;;;;;5009614;28;20037;-83
2023/06/10 11:28:59;;;;;;;4.20;2.72;;;;;;;;;;5025400;28;20033;-83
2023/06/10 11:31:32;;;;;;;4.65;2.70;;;;;;;;;;5042884;28;20420;-83
2023/06/10 11:34:04;;;;;;;5.95;2.80;;;;;;;;;;4999184;28;20033;-83
2023/06/10 11:36:30;;;;;;;5.28;3.10;;;;;;;;;;5009520;28;20148;-83
2023/06/10 11:39:06;;;;;;;8.27;3.28;;;;;;;;;;5031135;28;20567;-83
2023/06/10 11:41:33;;;;;;;5.30;3.30;;;;;;;;;;4985877;28;20163;-83
2023/06/10 11:44:14;;;;;;;4.63;3.35;;;;;;;;;;5015305;28;20041;-84
2023/06/10 11:46:42;;;;;;;7.00;3.83;;;;;;;;;;5042078;28;20918;-83
2023/06/10 11:49:08;;;;;;;5.72;3.47;;;;;;;;;;5015839;28;20928;-84
2023/06/10 11:51:38;;;;;;;5.28;3.40;;;;;;;;;;5024790;28;20044;-83
2023/06/10 11:54:04;;;;;;;6.32;3.38;;;;;;;;;;5025552;28;20467;-83
2023/06/10 11:56:31;;;;;;;5.07;3.17;;;;;;;;;;5029832;28;20044;-84
2023/06/10 11:59:04;;;;;;;4.63;3.00;;;;;;;;;;5026365;28;20515;-81
2023/06/10 12:01:31;;;;;;;5.55;3.50;;;;;;;;;;5025097;28;20128;-83
2023/06/10 12:04:01;;;;;;;4.40;3.10;;;;;;;;;;5000906;28;20033;-82
2023/06/10 12:06:27;;;;;;;5.05;2.92;;;;;;;;;;5014480;28;20384;-82
2023/06/10 12:08:53;;;;;;;5.25;3.30;;;;;;;;;;5009090;28;20029;-82
2023/06/10 12:11:20;;;;;;;5.28;3.17;;;;;;;;;;5008095;28;20029;-82
2023/06/10 12:13:50;;;;;;;5.15;3.63;;;;;;;;;;5025488;28;20040;-81
2023/06/10 12:16:16;;;;;;;5.10;3.13;;;;;;;;;;5040790;28;20553;-81
2023/06/10 12:18:44;;;;;;;5.00;2.93;;;;;;;;;;5025752;28;20055;-82
2023/06/10 12:21:20;;;;;;;4.55;3.10;;;;;;;;;;5025527;28;20278;-82
2023/06/10 12:24:05;;;;;;;7.05;2.90;;;;;;;;;;5008006;28;20388;-84
2023/06/10 12:26:41;;;;;;;4.05;2.70;;;;;;;;;;5024184;28;20033;-83
2023/06/10 12:29:18;;;;;;;4.68;2.83;;;;;;;;;;5032507;28;20029;-85
2023/06/10 12:32:08;;;;;;;4.00;2.80;;;;;;;;;;5007205;28;20035;-82
2023/06/10 12:34:33;;;;;;;4.03;2.83;;;;;;;;;;5018933;28;20389;-83
2023/06/10 12:37:00;;;;;;;5.90;2.90;;;;;;;;;;5040043;28;20039;-82
2023/06/10 12:39:26;;;;;;;7.00;2.90;;;;;;;;;;5009049;28;20410;-82
2023/06/10 12:41:51;;;;;;;5.65;2.90;;;;;;;;;;5025632;28;20037;-82
2023/06/10 12:44:17;;;;;;;4.82;3.15;;;;;;;;;;5029705;28;20071;-82
2023/06/10 12:46:42;;;;;;;5.55;3.28;;;;;;;;;;5009046;28;20440;-83
2023/06/10 12:49:08;;;;;;;4.22;2.95;;;;;;;;;;5000614;28;20097;-81
2023/06/10 12:51:35;;;;;;;5.82;3.40;;;;;;;;;;5008826;28;20135;-82
2023/06/10 12:54:00;;;;;;;;;;;;;;;;;;5025922;28;20049;-83
2023/06/10 12:56:26;;;;;;;6.07;3.50;;;;;;;;;;5029137;28;19921;-81
2023/06/10 12:58:51;;;;;;;5.90;3.40;;;;;;;;;;5025060;28;20271;-82
2023/06/10 13:01:17;;;;;;;5.55;4.10;;;;;;;;;;5024736;28;20545;-82
2023/06/10 13:03:45;;;;;;;5.50;3.95;;;;;;;;;;4999667;28;20093;-82
2023/06/10 13:06:11;;;;;;;5.55;3.72;;;;;;;;;;5026762;28;20025;-81
2023/06/10 13:08:42;;;;;;;6.63;3.75;;;;;;;;;;5012900;28;20028;-82
2023/06/10 13:11:08;;;;;;;6.75;4.07;;;;;;;;;;5017751;28;20062;-82
2023/06/10 13:13:39;;;;;;;6.15;3.72;;;;;;;;;;5029388;28;20059;-82
2023/06/10 13:16:05;;;;;;;10.50;4.10;;;;;;;;;;5044403;28;20425;-83
2023/06/10 13:18:36;;;;;;;5.72;4.03;;;;;;;;;;5030210;28;20131;-85
2023/06/10 13:21:05;;;;;;;8.30;4.22;;;;;;;;;;5012248;28;20072;-83
2023/06/10 13:23:31;;;;;;;6.03;4.00;;;;;;;;;;5012402;28;20091;-84
2023/06/10 13:25:57;;;;;;;6.70;3.80;;;;;;;;;;5026736;28;20037;-81
2023/06/10 13:28:22;;;;;;;6.32;3.60;;;;;;;;;;5003547;28;20565;-82
2023/06/10 13:30:47;;;;;;;6.97;3.72;;;;;;;;;;5016866;28;20029;-81
2023/06/10 13:33:13;;;;;;;4.90;3.43;;;;;;;;;;5046210;28;20099;-82
2023/06/10 13:35:38;;;;;;;5.15;3.70;;;;;;;;;;5033220;28;20366;-83
2023/06/10 13:38:04;;;;;;;4.00;3.03;;;;;;;;;;5028548;28;20439;-81
2023/06/10 13:40:29;;;;;;;6.50;3.95;;;;;;;;;;5032731;28;20496;-81
2023/06/10 13:42:55;;;;;;;9.00;3.87;;;;;;;;;;5044834;28;20040;-82
2023/06/10 13:45:26;;;;;;;5.00;3.20;;;;;;;;;;5001981;28;20087;-82
2023/06/10 13:47:51;;;;;;;5.63;3.40;;;;;;;;;;5028879;28;20512;-82
2023/06/10 13:50:17;;;;;;;6.37;3.60;;;;;;;;;;5011676;28;20128;-81
2023/06/10 13:52:43;;;;;;;6.67;3.90;;;;;;;;;;5028242;28;20033;-81
2023/06/10 13:55:08;;;;;;;5.47;3.53;;;;;;;;;;5010656;28;20049;-80
2023/06/10 13:57:34;;;;;;;5.95;3.65;;;;;;;;;;5020394;28;21254;-82
2023/06/10 13:59:59;;;;;;;4.95;3.45;;;;;;;;;;5041263;28;20060;-82
2023/06/10 14:02:25;;;;;;;5.55;4.05;;;;;;;;;;5024555;28;20500;-82
2023/06/10 14:04:50;;;;;;;6.60;3.83;;;;;;;;;;5025375;28;20405;-82
2023/06/10 14:07:16;;;;;;;5.60;3.60;;;;;;;;;;5023835;28;20041;-81
2023/06/10 14:09:41;;;;;;;5.38;3.80;;;;;;;;;;5025235;28;20025;-80
2023/06/10 14:12:11;;;;;;;5.57;3.90;;;;;;;;;;5024727;28;20037;-81
2023/06/10 14:14:36;;;;;;;7.07;4.30;;;;;;;;;;5024644;28;20037;-81
2023/06/10 14:17:04;;;;;;;5.78;4.03;;;;;;;;;;5006706;28;20038;-82
2023/06/10 14:19:30;;;;;;;6.82;4.10;;;;;;;;;;5024770;28;20042;-82
2023/06/10 14:21:55;;;;;;;6.18;4.20;;;;;;;;;;5007404;28;20041;-82
2023/06/10 14:24:21;;;;;;;6.07;4.00;;;;;;;;;;5024665;28;20041;-80
2023/06/10 14:26:47;;;;;;;5.43;3.90;;;;;;;;;;5039624;28;20043;-80
2023/06/10 14:29:14;;;;;;;5.55;4.10;;;;;;;;;;5008166;28;20083;-81
2023/06/10 14:31:40;;;;;;;6.43;4.80;;;;;;;;;;5008023;28;20501;-82
2023/06/10 14:34:07;;;;;;;6.32;3.88;;;;;;;;;;5007817;28;20043;-82
2023/06/10 14:36:33;;;;;;;;;;;;;;;;;;5007523;28;20038;-79
2023/06/10 14:38:58;;;;;;;5.43;4.07;;;;;;;;;;5024507;28;19917;-81
2023/06/10 14:41:24;;;;;;;4.90;3.58;;;;;;;;;;5006461;28;20144;-83
2023/06/10 14:43:50;;;;;;;7.35;3.70;;;;;;;;;;5023664;28;20148;-81
2023/06/10 14:46:15;;;;;;;7.68;4.13;;;;;;;;;;5023882;28;20120;-81